createdAt,value
2023-05-06T00:00:34.627Z,102976.06
2023-05-06T00:03:02.689Z,102982.75
2023-05-06T00:05:30.570Z,103003.88
2023-05-06T00:07:59.907Z,103002.06
2023-05-06T00:10:27.734Z,102992.78
2023-05-06T00:12:55.605Z,103000.41
2023-05-06T00:15:24.067Z,103005.88
2023-05-06T00:17:51.977Z,103018.94
2023-05-06T00:20:19.851Z,103012.72
2023-05-06T00:22:47.862Z,103012.88
2023-05-06T00:25:17.064Z,103001.47
2023-05-06T00:27:44.873Z,103018.34
2023-05-06T00:30:13.821Z,103019.69
2023-05-06T00:32:41.661Z,103026.38
2023-05-06T00:35:10.543Z,103027.16
2023-05-06T00:37:38.706Z,103023.50
2023-05-06T00:40:09.907Z,103020.59
2023-05-06T00:42:39.423Z,103023.78
2023-05-06T00:45:08.504Z,103026.97
2023-05-06T00:47:36.854Z,103025.00
2023-05-06T00:50:05.443Z,103030.16
2023-05-06T00:52:33.453Z,103023.03
2023-05-06T00:55:01.341Z,103029.56
2023-05-06T00:57:29.438Z,103021.66
2023-05-06T00:59:58.653Z,103024.69
2023-05-06T01:02:36.203Z,103010.22
2023-05-06T01:05:12.523Z,103022.69
2023-05-06T01:07:46.085Z,103031.97
2023-05-06T01:10:22.492Z,103024.66
2023-05-06T01:12:59.964Z,103028.28
2023-05-06T01:15:35.379Z,103026.16
2023-05-06T01:18:09.621Z,103038.59
2023-05-06T01:20:38.968Z,103030.66
2023-05-06T01:23:13.202Z,103035.97
2023-05-06T01:25:41.784Z,103041.31
2023-05-06T01:28:11.722Z,103034.94
2023-05-06T01:30:46.253Z,103038.75
2023-05-06T01:33:20.207Z,103041.19
2023-05-06T01:35:56.119Z,103035.66
2023-05-06T01:38:32.389Z,102969.19
2023-05-06T01:41:03.228Z,103030.78
2023-05-06T01:43:36.029Z,103037.63
2023-05-06T01:46:04.729Z,103044.47
2023-05-06T01:48:37.799Z,103037.03
2023-05-06T01:51:06.133Z,103047.66
2023-05-06T01:53:35.842Z,103037.63
2023-05-06T01:56:03.948Z,102997.88
2023-05-06T01:58:32.008Z,102980.38
2023-05-06T02:00:59.953Z,103042.75
2023-05-06T02:03:28.223Z,103036.03
2023-05-06T02:05:56.750Z,103038.16
2023-05-06T02:08:24.617Z,102882.69
2023-05-06T02:10:53.839Z,103041.78
2023-05-06T02:13:21.987Z,103037.38
2023-05-06T02:15:53.760Z,103019.88
2023-05-06T02:18:21.688Z,103039.50
2023-05-06T02:20:49.652Z,103042.06
2023-05-06T02:23:17.641Z,103037.06
2023-05-06T02:25:45.624Z,103022.16
2023-05-06T02:28:15.042Z,103030.38
2023-05-06T02:30:42.869Z,103039.00
2023-05-06T02:33:10.692Z,103050.09
2023-05-06T02:35:39.026Z,103035.47
2023-05-06T02:38:06.850Z,103034.41
2023-05-06T02:40:34.718Z,103044.28
2023-05-06T02:43:02.844Z,103048.69
2023-05-06T02:45:32.215Z,103043.81
2023-05-06T02:48:00.221Z,103041.81
2023-05-06T02:50:28.370Z,103042.56
2023-05-06T02:52:56.241Z,103044.84
2023-05-06T02:55:24.108Z,103046.19
2023-05-06T02:57:52.115Z,103049.84
2023-05-06T03:00:20.408Z,103028.41
2023-05-06T03:02:49.666Z,103038.34
2023-05-06T03:05:17.790Z,103043.50
2023-05-06T03:07:45.596Z,103035.91
2023-05-06T03:10:13.542Z,103049.63
2023-05-06T03:12:41.606Z,103051.28
2023-05-06T03:15:10.523Z,103029.53
2023-05-06T03:17:38.705Z,103047.78
2023-05-06T03:20:10.282Z,103045.38
2023-05-06T03:22:38.097Z,103004.28
2023-05-06T03:25:06.902Z,103038.06
2023-05-06T03:27:35.088Z,103052.06
2023-05-06T03:30:02.930Z,103048.00
2023-05-06T03:32:33.308Z,103045.56
2023-05-06T03:35:01.343Z,103051.81
2023-05-06T03:37:30.906Z,103051.81
2023-05-06T03:39:58.753Z,103022.16
2023-05-06T03:42:27.216Z,103053.50
2023-05-06T03:44:55.088Z,103053.84
2023-05-06T03:47:22.991Z,103038.78
2023-05-06T03:49:51.340Z,103060.09
2023-05-06T03:52:19.560Z,103060.91
2023-05-06T03:54:48.803Z,103065.19
2023-05-06T03:57:17.124Z,103052.56
2023-05-06T03:59:44.958Z,103067.81
2023-05-06T04:02:12.948Z,103061.59
2023-05-06T04:04:41.060Z,103065.72
2023-05-06T04:07:09.119Z,103065.59
2023-05-06T04:09:37.014Z,103061.94
2023-05-06T04:12:07.107Z,103068.66
2023-05-06T04:14:34.951Z,103036.56
2023-05-06T04:17:02.856Z,103077.63
2023-05-06T04:19:32.235Z,103066.84
2023-05-06T04:22:00.062Z,103066.53
2023-05-06T04:24:29.531Z,103072.47
2023-05-06T04:26:57.476Z,103068.69
2023-05-06T04:29:27.111Z,103062.44
2023-05-06T04:31:55.532Z,103036.44
2023-05-06T04:34:25.242Z,103069.59
2023-05-06T04:36:54.237Z,103066.69
2023-05-06T04:39:22.145Z,103068.97
2023-05-06T04:41:50.091Z,103065.16
2023-05-06T04:44:19.522Z,103062.25
2023-05-06T04:46:48.835Z,103064.69
2023-05-06T04:49:16.820Z,103066.19
2023-05-06T04:51:44.646Z,103061.63
2023-05-06T04:54:12.506Z,102875.28
2023-05-06T04:56:40.480Z,103067.97
2023-05-06T04:59:08.317Z,103066.75
2023-05-06T05:01:36.278Z,103058.66
2023-05-06T05:04:06.958Z,103063.66
2023-05-06T05:06:34.812Z,103060.75
2023-05-06T05:09:02.721Z,103055.84
2023-05-06T05:11:30.850Z,103064.63
2023-05-06T05:14:00.912Z,103056.97
2023-05-06T05:16:29.951Z,103065.78
2023-05-06T05:18:58.129Z,103056.19
2023-05-06T05:21:27.725Z,103075.75
2023-05-06T05:23:55.611Z,103075.44
2023-05-06T05:26:23.634Z,103056.38
2023-05-06T05:28:51.480Z,103069.72
2023-05-06T05:31:19.364Z,103076.38
2023-05-06T05:33:47.588Z,103072.81
2023-05-06T05:36:16.373Z,103066.53
2023-05-06T05:38:45.611Z,103071.50
2023-05-06T05:41:14.945Z,103078.16
2023-05-06T05:43:44.771Z,103078.59
2023-05-06T05:46:12.655Z,103077.34
2023-05-06T05:48:40.949Z,103073.63
2023-05-06T05:51:08.786Z,103065.56
2023-05-06T05:53:36.653Z,103077.97
2023-05-06T05:56:06.843Z,103082.66
2023-05-06T05:58:35.233Z,103079.72
2023-05-06T06:01:04.238Z,103088.69
2023-05-06T06:03:39.234Z,103041.84
2023-05-06T06:06:07.588Z,103091.06
2023-05-06T06:08:35.548Z,103083.69
2023-05-06T06:11:06.912Z,103089.44
2023-05-06T06:13:34.761Z,103087.25
2023-05-06T06:16:02.697Z,103087.53
2023-05-06T06:18:30.821Z,103083.38
2023-05-06T06:20:58.750Z,103088.06
2023-05-06T06:23:26.616Z,103076.41
2023-05-06T06:25:54.802Z,103060.91
2023-05-06T06:28:24.118Z,103080.47
2023-05-06T06:30:51.934Z,103059.78
2023-05-06T06:33:19.906Z,103083.19
2023-05-06T06:35:47.985Z,103078.53
2023-05-06T06:38:15.841Z,103075.44
2023-05-06T06:40:43.837Z,103075.22
2023-05-06T06:43:11.787Z,103079.13
2023-05-06T06:45:40.982Z,103067.44
2023-05-06T06:48:09.057Z,103089.84
2023-05-06T06:50:36.903Z,103068.03
2023-05-06T06:53:06.249Z,103071.28
2023-05-06T06:55:34.545Z,103037.84
2023-05-06T06:58:02.434Z,103067.00
2023-05-06T07:00:30.318Z,103063.78
2023-05-06T07:02:59.682Z,103064.13
2023-05-06T07:05:28.051Z,103063.34
2023-05-06T07:07:55.956Z,103064.06
2023-05-06T07:10:24.039Z,103066.66
2023-05-06T07:12:51.977Z,103063.53
2023-05-06T07:15:19.987Z,103059.44
2023-05-06T07:17:48.474Z,103035.44
2023-05-06T07:20:18.040Z,103067.31
2023-05-06T07:22:45.958Z,103060.56
2023-05-06T07:25:14.255Z,103053.19
2023-05-06T07:27:42.120Z,103041.13
2023-05-06T07:30:10.724Z,103042.94
2023-05-06T07:32:38.706Z,103046.03
2023-05-06T07:35:07.018Z,103046.47
2023-05-06T07:37:36.274Z,103049.13
2023-05-06T07:40:04.960Z,103045.53
2023-05-06T07:42:32.876Z,103039.38
2023-05-06T07:45:00.737Z,103037.69
2023-05-06T07:47:31.477Z,103041.59
2023-05-06T07:50:00.362Z,103038.38
2023-05-06T07:52:28.260Z,103046.06
2023-05-06T07:54:57.898Z,103040.59
2023-05-06T07:57:25.773Z,103040.91
2023-05-06T07:59:54.253Z,102940.31
2023-05-06T08:02:22.530Z,103023.78
2023-05-06T08:04:51.877Z,103027.53
2023-05-06T08:07:20.032Z,103026.03
2023-05-06T08:09:48.114Z,103027.53
2023-05-06T08:12:17.651Z,103029.63
2023-05-06T08:14:45.627Z,103012.75
2023-05-06T08:17:14.229Z,103026.75
2023-05-06T08:19:42.133Z,103026.38
2023-05-06T08:22:10.012Z,103025.09
2023-05-06T08:24:38.210Z,103014.06
2023-05-06T08:27:06.096Z,103013.66
2023-05-06T08:29:35.453Z,103013.53
2023-05-06T08:32:03.421Z,103016.41
2023-05-06T08:34:31.622Z,103020.19
2023-05-06T08:36:59.540Z,103005.88
2023-05-06T08:39:27.951Z,102937.22
2023-05-06T08:41:57.483Z,103009.69
2023-05-06T08:44:26.826Z,103005.06
2023-05-06T08:46:56.472Z,102931.31
2023-05-06T08:49:24.679Z,102997.56
2023-05-06T08:51:53.476Z,102994.91
2023-05-06T08:54:24.436Z,102998.03
2023-05-06T08:56:54.916Z,103000.44
2023-05-06T08:59:25.687Z,102987.00
2023-05-06T09:01:55.183Z,102967.88
2023-05-06T09:04:23.155Z,102985.19
2023-05-06T09:06:51.105Z,102984.84
2023-05-06T09:09:19.117Z,102978.47
2023-05-06T09:11:54.102Z,102998.19
2023-05-06T09:14:22.988Z,102967.88
2023-05-06T09:16:52.742Z,102977.63
2023-05-06T09:19:23.449Z,102970.44
2023-05-06T09:21:52.696Z,102984.00
2023-05-06T09:24:21.925Z,102981.25
2023-05-06T09:26:50.620Z,102986.44
2023-05-06T09:29:18.623Z,102975.44
2023-05-06T09:31:47.782Z,102980.75
2023-05-06T09:34:17.659Z,102978.22
2023-05-06T09:36:46.858Z,102994.50
2023-05-06T09:39:14.702Z,102977.94
2023-05-06T09:41:44.351Z,102969.19
2023-05-06T09:44:12.786Z,102962.88
2023-05-06T09:46:41.241Z,102979.63
2023-05-06T09:49:10.415Z,102970.06
2023-05-06T09:51:38.779Z,102956.75
2023-05-06T09:54:08.688Z,102968.63
2023-05-06T09:56:37.424Z,102964.91
2023-05-06T09:59:06.341Z,102953.91
2023-05-06T10:01:37.531Z,102958.03
2023-05-06T10:04:10.012Z,102898.75
2023-05-06T10:06:40.733Z,102942.31
2023-05-06T10:09:10.704Z,102936.09
2023-05-06T10:11:39.833Z,102946.19
2023-05-06T10:14:09.273Z,102927.75
2023-05-06T10:16:40.284Z,102927.75
2023-05-06T10:19:09.587Z,102928.22
2023-05-06T10:21:40.884Z,102920.84
2023-05-06T10:24:14.578Z,102924.34
2023-05-06T10:26:46.705Z,102902.31
2023-05-06T10:29:15.106Z,102915.81
2023-05-06T10:31:49.896Z,102873.41
2023-05-06T10:34:21.146Z,102871.91
2023-05-06T10:36:52.121Z,102880.91
2023-05-06T10:39:22.253Z,102874.16
2023-05-06T10:41:50.631Z,102881.47
2023-05-06T10:44:18.691Z,102875.59
2023-05-06T10:46:59.054Z,102886.00
2023-05-06T10:49:27.236Z,102884.34
2023-05-06T10:52:14.597Z,102888.91
2023-05-06T10:54:51.915Z,102879.59
2023-05-06T10:57:20.905Z,102878.22
2023-05-06T10:59:49.790Z,102876.50
2023-05-06T11:02:20.386Z,102876.56
2023-05-06T11:04:53.231Z,102887.84
2023-05-06T11:07:25.535Z,102818.16
2023-05-06T11:09:59.384Z,102815.34
2023-05-06T11:12:51.420Z,102733.81
2023-05-06T11:15:26.176Z,102861.13
2023-05-06T11:17:56.461Z,102859.53
2023-05-06T11:20:26.004Z,102857.53
2023-05-06T11:22:54.400Z,102863.41
2023-05-06T11:25:42.536Z,102859.38
2023-05-06T11:28:11.961Z,102847.06
2023-05-06T11:30:42.552Z,102842.13
2023-05-06T11:33:15.705Z,102848.00
2023-05-06T11:35:43.708Z,102851.88
2023-05-06T11:38:11.623Z,102836.06
2023-05-06T11:40:42.207Z,102867.22
2023-05-06T11:43:14.322Z,102851.53
2023-05-06T11:45:45.030Z,102854.59
2023-05-06T11:48:13.738Z,102859.22
2023-05-06T11:50:46.192Z,102841.13
2023-05-06T11:53:16.033Z,102846.47
2023-05-06T11:55:45.965Z,102846.91
2023-05-06T11:58:16.608Z,102851.25
2023-05-06T12:00:51.395Z,102856.69
2023-05-06T12:03:20.111Z,102856.84
2023-05-06T12:05:48.993Z,102862.72
2023-05-06T12:08:26.881Z,102844.56
2023-05-06T12:11:00.875Z,102850.69
2023-05-06T12:13:29.625Z,102850.06
2023-05-06T12:16:00.463Z,102840.88
2023-05-06T12:18:29.212Z,102835.13
2023-05-06T12:20:57.808Z,102830.81
2023-05-06T12:23:25.809Z,102835.59
2023-05-06T12:26:04.221Z,102834.34
2023-05-06T12:28:33.562Z,102829.00
2023-05-06T12:31:02.058Z,102825.09
2023-05-06T12:33:44.847Z,102818.56
2023-05-06T12:36:13.304Z,102840.69
2023-05-06T12:38:51.372Z,102827.72
2023-05-06T12:41:21.330Z,102830.22
2023-05-06T12:43:49.290Z,102825.44
2023-05-06T12:46:18.148Z,102820.81
2023-05-06T12:48:58.118Z,102818.56
2023-05-06T12:51:26.913Z,102820.19
2023-05-06T12:53:55.145Z,102818.91
2023-05-06T12:56:24.618Z,102806.16
2023-05-06T12:59:03.374Z,102829.31
2023-05-06T13:01:31.715Z,102770.72
2023-05-06T13:03:59.799Z,102819.00
2023-05-06T13:06:27.983Z,102815.66
2023-05-06T13:08:55.968Z,102819.19
2023-05-06T13:11:25.880Z,102808.66
2023-05-06T13:13:53.899Z,102816.13
2023-05-06T13:16:21.779Z,102840.06
2023-05-06T13:18:50.584Z,102816.19
2023-05-06T13:21:18.628Z,102818.41
2023-05-06T13:23:48.069Z,102822.34
2023-05-06T13:26:16.050Z,102812.78
2023-05-06T13:28:45.610Z,102807.16
2023-05-06T13:31:13.517Z,102810.50
2023-05-06T13:33:41.560Z,102775.22
2023-05-06T13:36:10.014Z,102807.44
2023-05-06T13:38:37.843Z,102653.88
2023-05-06T13:41:06.974Z,102796.53
2023-05-06T13:43:34.864Z,102801.16
2023-05-06T13:46:04.099Z,102810.06
2023-05-06T13:48:32.081Z,102807.63
2023-05-06T13:51:00.028Z,102811.75
2023-05-06T13:53:27.897Z,102809.13
2023-05-06T13:55:55.863Z,102807.81
2023-05-06T13:58:23.876Z,102806.69
2023-05-06T14:00:51.792Z,102791.97
2023-05-06T14:03:21.096Z,102792.50
2023-05-06T14:05:49.209Z,102794.94
2023-05-06T14:08:18.088Z,102798.72
2023-05-06T14:10:46.191Z,102801.84
2023-05-06T14:13:14.331Z,102792.81
2023-05-06T14:15:42.256Z,102784.41
2023-05-06T14:18:10.217Z,102808.94
2023-05-06T14:20:39.568Z,102781.06
2023-05-06T14:23:07.611Z,102778.22
2023-05-06T14:25:35.647Z,102799.41
2023-05-06T14:28:03.558Z,102796.66
2023-05-06T14:30:32.404Z,102787.19
2023-05-06T14:33:01.522Z,102781.63
2023-05-06T14:35:29.483Z,102792.91
2023-05-06T14:37:58.717Z,102788.00
2023-05-06T14:40:26.768Z,102774.38
2023-05-06T14:42:55.228Z,102788.16
2023-05-06T14:45:23.052Z,102777.91
2023-05-06T14:47:51.743Z,102785.28
2023-05-06T14:50:19.765Z,102784.28
2023-05-06T14:52:48.257Z,102792.69
2023-05-06T14:55:17.664Z,102782.97
2023-05-06T14:57:47.036Z,102771.56
2023-05-06T15:00:16.016Z,102775.59
2023-05-06T15:02:44.150Z,102771.25
2023-05-06T15:05:13.383Z,102776.31
2023-05-06T15:07:41.781Z,102769.28
2023-05-06T15:10:10.208Z,102756.25
2023-05-06T15:12:40.210Z,102760.69
2023-05-06T15:15:09.679Z,102753.41
2023-05-06T15:17:39.482Z,102757.25
2023-05-06T15:20:09.213Z,102763.47
2023-05-06T15:22:39.362Z,102749.34
2023-05-06T15:25:12.416Z,102760.78
2023-05-06T15:27:46.145Z,102753.75
2023-05-06T15:30:14.633Z,102752.75
2023-05-06T15:32:42.532Z,102758.41
2023-05-06T15:35:10.925Z,102759.38
2023-05-06T15:37:39.121Z,102769.75
2023-05-06T15:40:10.365Z,102765.81
2023-05-06T15:42:39.340Z,102749.13
2023-05-06T15:45:09.724Z,102765.53
2023-05-06T15:47:37.556Z,102774.69
2023-05-06T15:50:16.433Z,102771.09
2023-05-06T15:52:53.075Z,102772.00
2023-05-06T15:55:21.300Z,102771.88
2023-05-06T15:57:49.242Z,102771.94
2023-05-06T16:00:18.895Z,102771.94
2023-05-06T16:02:47.062Z,102754.66
2023-05-06T16:05:15.018Z,102780.34
2023-05-06T16:07:43.033Z,102761.41
2023-05-06T16:10:11.322Z,102769.25
2023-05-06T16:12:39.413Z,102768.31
2023-05-06T16:15:08.509Z,102762.59
2023-05-06T16:17:38.749Z,102763.31
2023-05-06T16:20:09.369Z,102766.47
2023-05-06T16:22:40.203Z,102776.47
2023-05-06T16:25:08.951Z,102770.34
2023-05-06T16:27:36.799Z,102763.81
2023-05-06T16:30:05.296Z,102760.50
2023-05-06T16:32:33.166Z,102748.00
2023-05-06T16:35:02.425Z,102763.31
2023-05-06T16:37:30.427Z,102680.34
2023-05-06T16:39:58.257Z,102777.00
2023-05-06T16:42:26.123Z,102777.44
2023-05-06T16:44:54.302Z,102784.25
2023-05-06T16:47:24.315Z,102784.16
2023-05-06T16:49:52.328Z,102784.25
2023-05-06T16:52:22.056Z,102788.31
2023-05-06T16:54:51.304Z,102791.06
2023-05-06T16:57:19.689Z,102748.47
2023-05-06T16:59:47.859Z,102792.47
2023-05-06T17:02:15.704Z,102794.09
2023-05-06T17:04:43.610Z,102774.88
2023-05-06T17:07:12.252Z,102799.28
2023-05-06T17:09:41.723Z,102789.25
2023-05-06T17:12:10.140Z,102795.94
2023-05-06T17:14:38.077Z,102800.34
2023-05-06T17:17:06.053Z,102798.19
2023-05-06T17:19:34.450Z,102798.09
2023-05-06T17:22:02.453Z,102809.03
2023-05-06T17:24:30.252Z,102802.19
2023-05-06T17:26:59.444Z,102808.88
2023-05-06T17:29:27.508Z,102794.78
2023-05-06T17:31:55.372Z,102809.94
2023-05-06T17:34:23.243Z,102640.81
2023-05-06T17:36:51.224Z,102804.72
2023-05-06T17:39:19.054Z,102819.88
2023-05-06T17:41:46.872Z,102815.59
2023-05-06T17:44:17.671Z,102810.63
2023-05-06T17:46:46.530Z,102803.06
2023-05-06T17:49:16.838Z,102805.22
2023-05-06T17:51:46.352Z,102795.13
2023-05-06T17:54:14.223Z,102805.69
2023-05-06T17:56:49.305Z,102813.28
2023-05-06T17:59:21.058Z,102742.44
2023-05-06T18:01:49.189Z,102753.31
2023-05-06T18:04:17.293Z,102808.53
2023-05-06T18:06:45.721Z,102819.41
2023-05-06T18:09:13.591Z,102788.56
2023-05-06T18:11:41.625Z,102824.75
2023-05-06T18:14:09.577Z,102797.63
2023-05-06T18:16:39.058Z,102812.84
2023-05-06T18:19:06.998Z,102810.69
2023-05-06T18:21:36.030Z,102807.38
2023-05-06T18:24:15.409Z,102804.53
2023-05-06T18:26:46.214Z,102764.38
2023-05-06T18:29:14.597Z,102809.97
2023-05-06T18:31:43.896Z,102810.06
2023-05-06T18:34:12.078Z,102751.16
2023-05-06T18:36:40.093Z,102794.13
2023-05-06T18:39:09.337Z,102817.03
2023-05-06T18:41:37.333Z,102803.28
2023-05-06T18:44:05.838Z,102815.41
2023-05-06T18:46:33.759Z,102818.31
2023-05-06T18:49:03.108Z,102813.78
2023-05-06T18:51:32.068Z,102805.50
2023-05-06T18:53:59.903Z,102822.69
2023-05-06T18:56:28.066Z,102810.84
2023-05-06T18:58:55.937Z,102825.31
2023-05-06T19:01:25.052Z,102805.78
2023-05-06T19:03:53.202Z,102815.63
2023-05-06T19:06:22.509Z,102813.69
2023-05-06T19:08:50.570Z,102818.00
2023-05-06T19:11:19.486Z,102817.09
2023-05-06T19:13:47.433Z,102813.47
2023-05-06T19:16:15.342Z,102806.75
2023-05-06T19:18:43.476Z,102815.56
2023-05-06T19:21:11.926Z,102782.22
2023-05-06T19:23:41.161Z,102816.91
2023-05-06T19:26:11.038Z,102826.16
2023-05-06T19:28:39.062Z,102822.41
2023-05-06T19:31:09.434Z,102760.19
2023-05-06T19:33:37.752Z,102650.75
2023-05-06T19:36:06.672Z,102826.38
2023-05-06T19:38:35.057Z,102820.13
2023-05-06T19:41:04.445Z,102823.53
2023-05-06T19:43:32.321Z,102825.88
2023-05-06T19:46:00.200Z,102796.97
2023-05-06T19:48:28.177Z,102821.34
2023-05-06T19:50:56.014Z,102823.72
2023-05-06T19:53:24.122Z,102827.75
2023-05-06T19:55:52.757Z,102824.91
2023-05-06T19:58:22.023Z,102824.66
2023-05-06T20:00:49.961Z,102819.22
2023-05-06T20:03:18.186Z,102814.53
2023-05-06T20:05:46.140Z,102825.22
2023-05-06T20:08:13.956Z,102813.81
2023-05-06T20:10:41.961Z,102822.91
2023-05-06T20:13:12.004Z,102825.38
2023-05-06T20:15:41.571Z,102820.94
2023-05-06T20:18:09.672Z,102825.00
2023-05-06T20:20:37.993Z,102816.69
2023-05-06T20:23:05.873Z,102814.75
2023-05-06T20:25:34.151Z,102764.78
2023-05-06T20:28:03.345Z,102813.44
2023-05-06T20:30:31.316Z,102815.13
2023-05-06T20:33:01.301Z,102819.19
2023-05-06T20:35:29.201Z,102813.59
2023-05-06T20:37:57.014Z,102809.69
2023-05-06T20:40:25.111Z,102812.69
2023-05-06T20:42:52.937Z,102807.91
2023-05-06T20:45:21.128Z,102835.16
2023-05-06T20:47:49.229Z,102822.06
2023-05-06T20:50:18.745Z,102814.78
2023-05-06T20:52:47.566Z,102747.78
2023-05-06T20:55:16.068Z,102814.53
2023-05-06T20:57:44.780Z,102784.00
2023-05-06T21:00:14.593Z,102824.66
2023-05-06T21:02:43.988Z,102823.63
2023-05-06T21:05:12.224Z,102817.38
2023-05-06T21:07:41.781Z,102817.38
2023-05-06T21:10:11.662Z,102809.47
2023-05-06T21:12:39.694Z,102815.56
2023-05-06T21:15:09.085Z,102811.94
2023-05-06T21:17:37.656Z,102820.38
2023-05-06T21:20:06.445Z,102805.31
2023-05-06T21:22:34.346Z,102817.13
2023-05-06T21:25:05.361Z,102817.13
2023-05-06T21:27:33.333Z,102823.22
2023-05-06T21:30:01.151Z,102824.78
2023-05-06T21:32:33.190Z,102822.06
2023-05-06T21:35:04.992Z,102822.69
2023-05-06T21:37:32.930Z,102817.50
2023-05-06T21:40:04.317Z,102821.78
2023-05-06T21:42:33.595Z,102813.88
2023-05-06T21:45:01.524Z,102820.50
2023-05-06T21:47:29.453Z,102824.13
2023-05-06T21:49:57.389Z,102817.00
2023-05-06T21:52:25.694Z,102814.13
2023-05-06T21:54:53.775Z,102812.19
2023-05-06T21:57:21.613Z,102817.25
2023-05-06T21:59:52.106Z,102820.63
2023-05-06T22:02:20.109Z,102808.41
2023-05-06T22:04:48.057Z,102815.41
2023-05-06T22:07:16.543Z,102819.81
2023-05-06T22:09:44.508Z,102808.53
2023-05-06T22:12:12.883Z,102818.25
2023-05-06T22:14:41.703Z,102821.38
2023-05-06T22:17:12.618Z,102820.06
2023-05-06T22:19:41.861Z,102800.19
2023-05-06T22:22:10.555Z,102812.28
2023-05-06T22:24:38.459Z,102815.38
2023-05-06T22:27:06.436Z,102815.88
2023-05-06T22:29:35.056Z,102783.94
2023-05-06T22:32:03.493Z,102797.94
2023-05-06T22:34:32.904Z,102822.09
2023-05-06T22:37:01.325Z,102822.09
2023-05-06T22:39:29.721Z,102823.38
2023-05-06T22:41:57.647Z,102818.06
2023-05-06T22:44:25.765Z,102819.47
2023-05-06T22:46:54.968Z,102817.53
2023-05-06T22:49:23.592Z,102823.22
2023-05-06T22:51:52.915Z,102819.44
2023-05-06T22:54:20.920Z,102826.19
2023-05-06T22:56:48.843Z,102827.59
2023-05-06T22:59:17.018Z,102830.03
2023-05-06T23:01:45.066Z,102827.97
2023-05-06T23:04:13.322Z,102826.13
2023-05-06T23:06:41.457Z,102834.56
2023-05-06T23:09:11.550Z,102835.97
2023-05-06T23:11:39.404Z,102833.38
2023-05-06T23:14:08.213Z,102806.59
2023-05-06T23:16:36.202Z,102831.00
2023-05-06T23:19:04.178Z,102832.56
2023-05-06T23:21:32.522Z,102838.38
2023-05-06T23:24:01.016Z,102837.59
2023-05-06T23:26:30.272Z,102838.50
2023-05-06T23:28:58.224Z,102834.47
2023-05-06T23:31:26.416Z,102842.38
2023-05-06T23:33:54.285Z,102831.94
2023-05-06T23:36:22.371Z,102833.34
2023-05-06T23:38:50.251Z,102836.84
2023-05-06T23:41:18.136Z,102839.59
2023-05-06T23:43:47.383Z,102826.22
2023-05-06T23:46:15.361Z,102838.69
2023-05-06T23:48:43.251Z,102842.81
2023-05-06T23:51:11.230Z,102843.44
2023-05-06T23:53:39.196Z,102835.53
2023-05-06T23:56:07.661Z,102839.66
2023-05-06T23:58:35.602Z,102835.75
